sensor_id;sensor_type;location;lat;lon;timestamp;temperature;humidity
83466;DHT22;73393;51.946;20.140;2023-12-14T00:00:46;3.10;100.00
83466;DHT22;73393;51.946;20.140;2023-12-14T00:03:11;3.00;100.00
83466;DHT22;73393;51.946;20.140;2023-12-14T00:05:37;3.00;100.00
83466;DHT22;73393;51.946;20.140;2023-12-14T00:08:04;2.90;100.00
83466;DHT22;73393;51.946;20.140;2023-12-14T00:10:29;3.00;100.00
83466;DHT22;73393;51.946;20.140;2023-12-14T00:12:55;3.00;100.00
83466;DHT22;73393;51.946;20.140;2023-12-14T00:15:21;2.80;100.00
83466;DHT22;73393;51.946;20.140;2023-12-14T00:17:46;2.90;100.00
83466;DHT22;73393;51.946;20.140;2023-12-14T00:20:12;2.80;100.00
83466;DHT22;73393;51.946;20.140;2023-12-14T00:22:38;2.90;100.00
83466;DHT22;73393;51.946;20.140;2023-12-14T00:25:05;2.90;100.00
83466;DHT22;73393;51.946;20.140;2023-12-14T00:27:30;2.90;100.00
83466;DHT22;73393;51.946;20.140;2023-12-14T00:29:56;2.90;100.00
83466;DHT22;73393;51.946;20.140;2023-12-14T00:32:21;2.90;100.00
83466;DHT22;73393;51.946;20.140;2023-12-14T00:34:47;2.90;100.00
83466;DHT22;73393;51.946;20.140;2023-12-14T00:37:13;2.90;100.00
83466;DHT22;73393;51.946;20.140;2023-12-14T00:39:39;2.80;100.00
83466;DHT22;73393;51.946;20.140;2023-12-14T00:42:04;2.90;100.00
83466;DHT22;73393;51.946;20.140;2023-12-14T00:44:30;2.80;100.00
83466;DHT22;73393;51.946;20.140;2023-12-14T00:46:55;2.80;100.00
83466;DHT22;73393;51.946;20.140;2023-12-14T00:49:22;2.70;100.00
83466;DHT22;73393;51.946;20.140;2023-12-14T00:51:47;2.80;100.00
83466;DHT22;73393;51.946;20.140;2023-12-14T00:54:13;2.70;100.00
83466;DHT22;73393;51.946;20.140;2023-12-14T00:56:38;2.70;100.00
83466;DHT22;73393;51.946;20.140;2023-12-14T00:59:04;2.70;100.00
83466;DHT22;73393;51.946;20.140;2023-12-14T01:01:29;2.70;100.00
83466;DHT22;73393;51.946;20.140;2023-12-14T01:03:55;2.60;100.00
83466;DHT22;73393;51.946;20.140;2023-12-14T01:06:21;2.70;100.00
83466;DHT22;73393;51.946;20.140;2023-12-14T01:08:47;2.70;100.00
83466;DHT22;73393;51.946;20.140;2023-12-14T01:11:13;2.70;100.00
83466;DHT22;73393;51.946;20.140;2023-12-14T01:13:38;2.70;100.00
83466;DHT22;73393;51.946;20.140;2023-12-14T01:16:04;2.80;100.00
83466;DHT22;73393;51.946;20.140;2023-12-14T01:18:30;2.90;100.00
83466;DHT22;73393;51.946;20.140;2023-12-14T01:20:55;2.80;100.00
83466;DHT22;73393;51.946;20.140;2023-12-14T01:23:21;2.70;100.00
83466;DHT22;73393;51.946;20.140;2023-12-14T01:25:46;2.60;100.00
83466;DHT22;73393;51.946;20.140;2023-12-14T01:28:12;2.60;100.00
83466;DHT22;73393;51.946;20.140;2023-12-14T01:30:39;2.60;100.00
83466;DHT22;73393;51.946;20.140;2023-12-14T01:33:04;2.70;100.00
83466;DHT22;73393;51.946;20.140;2023-12-14T01:35:30;2.70;100.00
83466;DHT22;73393;51.946;20.140;2023-12-14T01:37:55;2.70;100.00
83466;DHT22;73393;51.946;20.140;2023-12-14T01:40:21;2.70;100.00
83466;DHT22;73393;51.946;20.140;2023-12-14T01:42:47;2.70;100.00
83466;DHT22;73393;51.946;20.140;2023-12-14T01:45:12;2.70;100.00
83466;DHT22;73393;51.946;20.140;2023-12-14T01:47:42;2.70;100.00
83466;DHT22;73393;51.946;20.140;2023-12-14T01:50:08;2.70;100.00
83466;DHT22;73393;51.946;20.140;2023-12-14T01:52:34;2.70;100.00
83466;DHT22;73393;51.946;20.140;2023-12-14T01:55:00;2.70;100.00
83466;DHT22;73393;51.946;20.140;2023-12-14T01:57:28;2.60;99.90
83466;DHT22;73393;51.946;20.140;2023-12-14T01:59:53;2.60;100.00
83466;DHT22;73393;51.946;20.140;2023-12-14T02:02:19;2.60;100.00
83466;DHT22;73393;51.946;20.140;2023-12-14T02:04:45;2.60;100.00
83466;DHT22;73393;51.946;20.140;2023-12-14T02:07:10;2.60;100.00
83466;DHT22;73393;51.946;20.140;2023-12-14T02:09:36;2.60;100.00
83466;DHT22;73393;51.946;20.140;2023-12-14T02:12:02;2.60;100.00
83466;DHT22;73393;51.946;20.140;2023-12-14T02:14:27;2.50;100.00
83466;DHT22;73393;51.946;20.140;2023-12-14T02:16:53;2.60;100.00
83466;DHT22;73393;51.946;20.140;2023-12-14T02:19:19;2.60;100.00
83466;DHT22;73393;51.946;20.140;2023-12-14T02:21:44;2.50;100.00
83466;DHT22;73393;51.946;20.140;2023-12-14T02:24:10;2.50;100.00
83466;DHT22;73393;51.946;20.140;2023-12-14T02:26:35;2.50;100.00
83466;DHT22;73393;51.946;20.140;2023-12-14T02:29:01;2.50;100.00
83466;DHT22;73393;51.946;20.140;2023-12-14T02:31:26;2.40;100.00
83466;DHT22;73393;51.946;20.140;2023-12-14T02:33:52;2.40;100.00
83466;DHT22;73393;51.946;20.140;2023-12-14T02:36:18;2.40;100.00
83466;DHT22;73393;51.946;20.140;2023-12-14T02:38:44;2.50;100.00
83466;DHT22;73393;51.946;20.140;2023-12-14T02:41:10;2.40;100.00
83466;DHT22;73393;51.946;20.140;2023-12-14T02:43:36;2.30;100.00
83466;DHT22;73393;51.946;20.140;2023-12-14T02:46:03;2.30;100.00
83466;DHT22;73393;51.946;20.140;2023-12-14T02:48:30;2.40;100.00
83466;DHT22;73393;51.946;20.140;2023-12-14T02:50:57;2.40;100.00
83466;DHT22;73393;51.946;20.140;2023-12-14T02:53:25;2.40;100.00
83466;DHT22;73393;51.946;20.140;2023-12-14T02:55:50;2.40;100.00
83466;DHT22;73393;51.946;20.140;2023-12-14T02:58:16;2.50;100.00
83466;DHT22;73393;51.946;20.140;2023-12-14T03:00:42;2.40;100.00
83466;DHT22;73393;51.946;20.140;2023-12-14T03:03:07;2.40;100.00
83466;DHT22;73393;51.946;20.140;2023-12-14T03:05:33;2.40;100.00
83466;DHT22;73393;51.946;20.140;2023-12-14T03:07:58;2.40;100.00
83466;DHT22;73393;51.946;20.140;2023-12-14T03:10:24;2.40;100.00
83466;DHT22;73393;51.946;20.140;2023-12-14T03:12:49;2.40;100.00
83466;DHT22;73393;51.946;20.140;2023-12-14T03:15:17;2.40;100.00
83466;DHT22;73393;51.946;20.140;2023-12-14T03:17:43;2.40;100.00
83466;DHT22;73393;51.946;20.140;2023-12-14T03:20:09;2.40;100.00
83466;DHT22;73393;51.946;20.140;2023-12-14T03:22:35;2.40;100.00
83466;DHT22;73393;51.946;20.140;2023-12-14T03:25:00;2.40;100.00
83466;DHT22;73393;51.946;20.140;2023-12-14T03:27:26;2.50;100.00
83466;DHT22;73393;51.946;20.140;2023-12-14T03:29:51;2.40;100.00
83466;DHT22;73393;51.946;20.140;2023-12-14T03:32:17;2.40;100.00
83466;DHT22;73393;51.946;20.140;2023-12-14T03:34:42;2.40;100.00
83466;DHT22;73393;51.946;20.140;2023-12-14T03:37:08;2.40;100.00
83466;DHT22;73393;51.946;20.140;2023-12-14T03:39:33;2.40;100.00
83466;DHT22;73393;51.946;20.140;2023-12-14T03:41:59;2.40;100.00
83466;DHT22;73393;51.946;20.140;2023-12-14T03:44:25;2.40;99.90
83466;DHT22;73393;51.946;20.140;2023-12-14T03:46:50;2.40;100.00
83466;DHT22;73393;51.946;20.140;2023-12-14T03:49:16;2.40;100.00
83466;DHT22;73393;51.946;20.140;2023-12-14T03:51:41;2.40;100.00
83466;DHT22;73393;51.946;20.140;2023-12-14T03:54:07;2.40;100.00
83466;DHT22;73393;51.946;20.140;2023-12-14T03:56:33;2.30;100.00
83466;DHT22;73393;51.946;20.140;2023-12-14T03:58:58;2.40;100.00
83466;DHT22;73393;51.946;20.140;2023-12-14T04:01:24;2.40;100.00
83466;DHT22;73393;51.946;20.140;2023-12-14T04:03:49;2.40;100.00
83466;DHT22;73393;51.946;20.140;2023-12-14T04:06:15;2.30;100.00
83466;DHT22;73393;51.946;20.140;2023-12-14T04:08:41;2.30;100.00
83466;DHT22;73393;51.946;20.140;2023-12-14T04:11:07;2.30;100.00
83466;DHT22;73393;51.946;20.140;2023-12-14T04:13:34;2.20;100.00
83466;DHT22;73393;51.946;20.140;2023-12-14T04:16:00;2.20;100.00
83466;DHT22;73393;51.946;20.140;2023-12-14T04:18:26;2.30;100.00
83466;DHT22;73393;51.946;20.140;2023-12-14T04:20:52;2.30;100.00
83466;DHT22;73393;51.946;20.140;2023-12-14T04:23:17;2.30;100.00
83466;DHT22;73393;51.946;20.140;2023-12-14T04:25:43;2.40;100.00
83466;DHT22;73393;51.946;20.140;2023-12-14T04:28:09;2.30;100.00
83466;DHT22;73393;51.946;20.140;2023-12-14T04:30:35;2.30;100.00
83466;DHT22;73393;51.946;20.140;2023-12-14T04:33:00;2.30;100.00
83466;DHT22;73393;51.946;20.140;2023-12-14T04:35:26;2.40;100.00
83466;DHT22;73393;51.946;20.140;2023-12-14T04:37:51;2.40;100.00
83466;DHT22;73393;51.946;20.140;2023-12-14T04:40:17;2.40;100.00
83466;DHT22;73393;51.946;20.140;2023-12-14T04:42:42;2.50;100.00
83466;DHT22;73393;51.946;20.140;2023-12-14T04:45:09;2.50;100.00
83466;DHT22;73393;51.946;20.140;2023-12-14T04:47:35;2.50;99.60
83466;DHT22;73393;51.946;20.140;2023-12-14T04:50:01;2.50;99.90
83466;DHT22;73393;51.946;20.140;2023-12-14T04:52:28;2.50;100.00
83466;DHT22;73393;51.946;20.140;2023-12-14T04:54:54;2.50;99.60
83466;DHT22;73393;51.946;20.140;2023-12-14T04:57:20;2.50;99.60
83466;DHT22;73393;51.946;20.140;2023-12-14T04:59:45;2.40;99.90
83466;DHT22;73393;51.946;20.140;2023-12-14T05:02:11;2.40;99.70
83466;DHT22;73393;51.946;20.140;2023-12-14T05:04:37;2.30;100.00
83466;DHT22;73393;51.946;20.140;2023-12-14T05:07:02;2.30;100.00
83466;DHT22;73393;51.946;20.140;2023-12-14T05:09:28;2.30;100.00
83466;DHT22;73393;51.946;20.140;2023-12-14T05:11:54;2.40;100.00
83466;DHT22;73393;51.946;20.140;2023-12-14T05:14:19;2.30;100.00
83466;DHT22;73393;51.946;20.140;2023-12-14T05:16:45;2.40;100.00
83466;DHT22;73393;51.946;20.140;2023-12-14T05:19:11;2.40;100.00
83466;DHT22;73393;51.946;20.140;2023-12-14T05:21:39;2.40;100.00
83466;DHT22;73393;51.946;20.140;2023-12-14T05:24:05;2.40;100.00
83466;DHT22;73393;51.946;20.140;2023-12-14T05:26:31;2.30;100.00
83466;DHT22;73393;51.946;20.140;2023-12-14T05:28:56;2.30;100.00
83466;DHT22;73393;51.946;20.140;2023-12-14T05:31:22;2.30;100.00
83466;DHT22;73393;51.946;20.140;2023-12-14T05:33:47;2.20;100.00
83466;DHT22;73393;51.946;20.140;2023-12-14T05:36:13;2.30;100.00
83466;DHT22;73393;51.946;20.140;2023-12-14T05:38:39;2.30;100.00
83466;DHT22;73393;51.946;20.140;2023-12-14T05:41:05;2.30;100.00
83466;DHT22;73393;51.946;20.140;2023-12-14T05:43:31;2.30;100.00
83466;DHT22;73393;51.946;20.140;2023-12-14T05:45:57;2.30;100.00
83466;DHT22;73393;51.946;20.140;2023-12-14T05:48:22;2.30;100.00
83466;DHT22;73393;51.946;20.140;2023-12-14T05:50:48;2.30;100.00
83466;DHT22;73393;51.946;20.140;2023-12-14T05:53:15;2.30;100.00
83466;DHT22;73393;51.946;20.140;2023-12-14T05:55:42;2.20;100.00
83466;DHT22;73393;51.946;20.140;2023-12-14T05:58:07;2.20;100.00
83466;DHT22;73393;51.946;20.140;2023-12-14T06:00:33;2.20;100.00
83466;DHT22;73393;51.946;20.140;2023-12-14T06:03:00;2.20;100.00
83466;DHT22;73393;51.946;20.140;2023-12-14T06:05:28;2.30;100.00
83466;DHT22;73393;51.946;20.140;2023-12-14T06:07:53;2.20;100.00
83466;DHT22;73393;51.946;20.140;2023-12-14T06:10:19;2.30;100.00
83466;DHT22;73393;51.946;20.140;2023-12-14T06:12:45;2.30;100.00
83466;DHT22;73393;51.946;20.140;2023-12-14T06:15:10;2.30;100.00
83466;DHT22;73393;51.946;20.140;2023-12-14T06:17:36;2.30;100.00
83466;DHT22;73393;51.946;20.140;2023-12-14T06:20:05;2.30;100.00
83466;DHT22;73393;51.946;20.140;2023-12-14T06:22:35;2.20;100.00
83466;DHT22;73393;51.946;20.140;2023-12-14T06:25:01;2.30;100.00
83466;DHT22;73393;51.946;20.140;2023-12-14T06:27:26;2.30;100.00
83466;DHT22;73393;51.946;20.140;2023-12-14T06:29:52;2.30;100.00
83466;DHT22;73393;51.946;20.140;2023-12-14T06:32:18;2.40;100.00
83466;DHT22;73393;51.946;20.140;2023-12-14T06:34:43;2.30;100.00
83466;DHT22;73393;51.946;20.140;2023-12-14T06:37:09;2.30;100.00
83466;DHT22;73393;51.946;20.140;2023-12-14T06:39:36;2.40;100.00
83466;DHT22;73393;51.946;20.140;2023-12-14T06:42:01;2.30;99.90
83466;DHT22;73393;51.946;20.140;2023-12-14T06:44:27;2.30;99.70
83466;DHT22;73393;51.946;20.140;2023-12-14T06:46:53;2.30;100.00
83466;DHT22;73393;51.946;20.140;2023-12-14T06:49:20;2.40;100.00
83466;DHT22;73393;51.946;20.140;2023-12-14T06:51:46;2.30;99.50
83466;DHT22;73393;51.946;20.140;2023-12-14T06:54:11;2.20;99.70
83466;DHT22;73393;51.946;20.140;2023-12-14T06:56:37;2.20;100.00
83466;DHT22;73393;51.946;20.140;2023-12-14T06:59:03;2.20;100.00
83466;DHT22;73393;51.946;20.140;2023-12-14T07:01:28;2.20;100.00
83466;DHT22;73393;51.946;20.140;2023-12-14T07:03:54;2.20;100.00
83466;DHT22;73393;51.946;20.140;2023-12-14T07:06:20;2.10;100.00
83466;DHT22;73393;51.946;20.140;2023-12-14T07:08:46;2.20;100.00
83466;DHT22;73393;51.946;20.140;2023-12-14T07:11:13;2.20;100.00
83466;DHT22;73393;51.946;20.140;2023-12-14T07:13:39;2.20;100.00
83466;DHT22;73393;51.946;20.140;2023-12-14T07:16:06;2.20;100.00
83466;DHT22;73393;51.946;20.140;2023-12-14T07:18:36;2.20;100.00
83466;DHT22;73393;51.946;20.140;2023-12-14T07:21:03;2.30;100.00
83466;DHT22;73393;51.946;20.140;2023-12-14T07:23:28;2.30;100.00
83466;DHT22;73393;51.946;20.140;2023-12-14T07:25:54;2.30;99.90
83466;DHT22;73393;51.946;20.140;2023-12-14T07:28:20;2.30;99.90
83466;DHT22;73393;51.946;20.140;2023-12-14T07:30:46;2.30;100.00
83466;DHT22;73393;51.946;20.140;2023-12-14T07:33:12;2.30;100.00
83466;DHT22;73393;51.946;20.140;2023-12-14T07:35:38;2.30;100.00
83466;DHT22;73393;51.946;20.140;2023-12-14T07:38:03;2.30;100.00
83466;DHT22;73393;51.946;20.140;2023-12-14T07:40:29;2.30;100.00
83466;DHT22;73393;51.946;20.140;2023-12-14T07:42:58;2.30;100.00
83466;DHT22;73393;51.946;20.140;2023-12-14T07:45:25;2.30;100.00
83466;DHT22;73393;51.946;20.140;2023-12-14T07:47:51;2.40;100.00
83466;DHT22;73393;51.946;20.140;2023-12-14T07:50:16;2.20;100.00
83466;DHT22;73393;51.946;20.140;2023-12-14T07:52:42;2.20;100.00
83466;DHT22;73393;51.946;20.140;2023-12-14T07:55:08;2.10;100.00
83466;DHT22;73393;51.946;20.140;2023-12-14T07:57:34;2.20;100.00
83466;DHT22;73393;51.946;20.140;2023-12-14T07:59:59;2.20;100.00
83466;DHT22;73393;51.946;20.140;2023-12-14T08:02:27;2.20;100.00
83466;DHT22;73393;51.946;20.140;2023-12-14T08:04:53;2.30;100.00
83466;DHT22;73393;51.946;20.140;2023-12-14T08:07:18;2.20;99.90
83466;DHT22;73393;51.946;20.140;2023-12-14T08:09:44;2.10;100.00
83466;DHT22;73393;51.946;20.140;2023-12-14T08:12:10;2.10;100.00
83466;DHT22;73393;51.946;20.140;2023-12-14T08:14:36;2.20;100.00
83466;DHT22;73393;51.946;20.140;2023-12-14T08:17:04;2.20;100.00
83466;DHT22;73393;51.946;20.140;2023-12-14T08:19:30;2.10;100.00
83466;DHT22;73393;51.946;20.140;2023-12-14T08:21:55;2.10;100.00
83466;DHT22;73393;51.946;20.140;2023-12-14T08:24:21;2.10;100.00
83466;DHT22;73393;51.946;20.140;2023-12-14T08:26:47;2.20;100.00
83466;DHT22;73393;51.946;20.140;2023-12-14T08:29:13;2.10;100.00
83466;DHT22;73393;51.946;20.140;2023-12-14T08:31:39;2.10;100.00
83466;DHT22;73393;51.946;20.140;2023-12-14T08:34:04;2.10;100.00
83466;DHT22;73393;51.946;20.140;2023-12-14T08:36:30;2.10;100.00
83466;DHT22;73393;51.946;20.140;2023-12-14T08:38:57;2.10;100.00
83466;DHT22;73393;51.946;20.140;2023-12-14T08:41:22;2.20;100.00
83466;DHT22;73393;51.946;20.140;2023-12-14T08:43:48;2.20;100.00
83466;DHT22;73393;51.946;20.140;2023-12-14T08:46:14;2.30;100.00
83466;DHT22;73393;51.946;20.140;2023-12-14T08:48:39;2.30;99.50
83466;DHT22;73393;51.946;20.140;2023-12-14T08:51:05;2.30;99.00
83466;DHT22;73393;51.946;20.140;2023-12-14T08:53:31;2.30;99.10
83466;DHT22;73393;51.946;20.140;2023-12-14T08:55:56;2.20;99.70
83466;DHT22;73393;51.946;20.140;2023-12-14T08:58:22;2.20;100.00
83466;DHT22;73393;51.946;20.140;2023-12-14T09:00:48;2.20;100.00
83466;DHT22;73393;51.946;20.140;2023-12-14T09:03:18;2.20;100.00
83466;DHT22;73393;51.946;20.140;2023-12-14T09:05:44;2.30;100.00
83466;DHT22;73393;51.946;20.140;2023-12-14T09:08:10;2.30;99.70
83466;DHT22;73393;51.946;20.140;2023-12-14T09:10:36;2.40;99.90
83466;DHT22;73393;51.946;20.140;2023-12-14T09:13:01;2.40;99.70
83466;DHT22;73393;51.946;20.140;2023-12-14T09:15:31;2.60;99.20
83466;DHT22;73393;51.946;20.140;2023-12-14T09:17:56;2.50;98.70
83466;DHT22;73393;51.946;20.140;2023-12-14T09:20:22;2.50;98.70
83466;DHT22;73393;51.946;20.140;2023-12-14T09:22:47;2.40;98.70
83466;DHT22;73393;51.946;20.140;2023-12-14T09:25:13;2.40;98.80
83466;DHT22;73393;51.946;20.140;2023-12-14T09:27:40;2.50;99.20
83466;DHT22;73393;51.946;20.140;2023-12-14T09:30:06;2.50;99.30
83466;DHT22;73393;51.946;20.140;2023-12-14T09:32:33;2.40;99.30
83466;DHT22;73393;51.946;20.140;2023-12-14T09:35:00;2.30;99.20
83466;DHT22;73393;51.946;20.140;2023-12-14T09:37:26;2.30;99.40
83466;DHT22;73393;51.946;20.140;2023-12-14T09:39:51;2.30;99.50
83466;DHT22;73393;51.946;20.140;2023-12-14T09:42:19;2.30;99.70
83466;DHT22;73393;51.946;20.140;2023-12-14T09:44:46;2.50;99.70
83466;DHT22;73393;51.946;20.140;2023-12-14T09:47:12;2.40;99.10
83466;DHT22;73393;51.946;20.140;2023-12-14T09:49:38;2.40;99.60
83466;DHT22;73393;51.946;20.140;2023-12-14T09:52:06;2.40;99.60
83466;DHT22;73393;51.946;20.140;2023-12-14T09:54:31;2.30;99.80
83466;DHT22;73393;51.946;20.140;2023-12-14T09:56:58;2.20;100.00
83466;DHT22;73393;51.946;20.140;2023-12-14T09:59:23;2.30;100.00
83466;DHT22;73393;51.946;20.140;2023-12-14T10:01:49;2.30;100.00
83466;DHT22;73393;51.946;20.140;2023-12-14T10:04:18;2.30;100.00
83466;DHT22;73393;51.946;20.140;2023-12-14T10:06:45;2.30;100.00
83466;DHT22;73393;51.946;20.140;2023-12-14T10:09:11;2.20;100.00
83466;DHT22;73393;51.946;20.140;2023-12-14T10:11:41;2.10;100.00
83466;DHT22;73393;51.946;20.140;2023-12-14T10:14:24;2.10;100.00
83466;DHT22;73393;51.946;20.140;2023-12-14T10:16:51;2.10;100.00
83466;DHT22;73393;51.946;20.140;2023-12-14T10:19:18;2.20;100.00
83466;DHT22;73393;51.946;20.140;2023-12-14T10:21:46;2.20;100.00
83466;DHT22;73393;51.946;20.140;2023-12-14T10:24:13;2.20;100.00
83466;DHT22;73393;51.946;20.140;2023-12-14T10:26:38;2.20;100.00
83466;DHT22;73393;51.946;20.140;2023-12-14T10:29:04;2.20;100.00
83466;DHT22;73393;51.946;20.140;2023-12-14T10:31:33;2.20;100.00
83466;DHT22;73393;51.946;20.140;2023-12-14T10:34:03;2.20;100.00
83466;DHT22;73393;51.946;20.140;2023-12-14T10:36:29;2.10;100.00
83466;DHT22;73393;51.946;20.140;2023-12-14T10:38:57;2.20;100.00
83466;DHT22;73393;51.946;20.140;2023-12-14T10:41:24;2.20;100.00
83466;DHT22;73393;51.946;20.140;2023-12-14T10:43:54;2.30;100.00
83466;DHT22;73393;51.946;20.140;2023-12-14T10:46:21;2.30;100.00
83466;DHT22;73393;51.946;20.140;2023-12-14T10:48:51;2.30;99.70
83466;DHT22;73393;51.946;20.140;2023-12-14T10:51:24;2.40;99.50
83466;DHT22;73393;51.946;20.140;2023-12-14T10:53:50;2.30;98.90
83466;DHT22;73393;51.946;20.140;2023-12-14T10:56:17;2.30;99.20
83466;DHT22;73393;51.946;20.140;2023-12-14T10:58:51;2.40;99.40
83466;DHT22;73393;51.946;20.140;2023-12-14T11:01:19;2.50;99.00
83466;DHT22;73393;51.946;20.140;2023-12-14T11:03:47;2.50;98.70
83466;DHT22;73393;51.946;20.140;2023-12-14T11:06:30;2.50;98.00
83466;DHT22;73393;51.946;20.140;2023-12-14T11:09:02;2.50;98.70
83466;DHT22;73393;51.946;20.140;2023-12-14T11:11:56;2.60;98.60
83466;DHT22;73393;51.946;20.140;2023-12-14T11:14:23;2.50;97.70
83466;DHT22;73393;51.946;20.140;2023-12-14T11:16:53;2.50;98.70
83466;DHT22;73393;51.946;20.140;2023-12-14T11:24:35;2.40;99.20
83466;DHT22;73393;51.946;20.140;2023-12-14T11:27:04;2.30;99.70
83466;DHT22;73393;51.946;20.140;2023-12-14T11:29:31;2.10;99.90
83466;DHT22;73393;51.946;20.140;2023-12-14T11:31:57;2.10;100.00
83466;DHT22;73393;51.946;20.140;2023-12-14T11:34:27;2.20;100.00
83466;DHT22;73393;51.946;20.140;2023-12-14T11:36:55;2.40;100.00
83466;DHT22;73393;51.946;20.140;2023-12-14T11:39:20;2.40;99.70
83466;DHT22;73393;51.946;20.140;2023-12-14T11:42:16;2.50;98.60
83466;DHT22;73393;51.946;20.140;2023-12-14T11:44:43;2.50;98.20
83466;DHT22;73393;51.946;20.140;2023-12-14T11:47:10;2.50;98.40
83466;DHT22;73393;51.946;20.140;2023-12-14T11:49:36;2.40;98.60
83466;DHT22;73393;51.946;20.140;2023-12-14T11:52:02;2.40;99.20
83466;DHT22;73393;51.946;20.140;2023-12-14T11:54:30;2.30;99.40
83466;DHT22;73393;51.946;20.140;2023-12-14T11:56:55;2.30;99.20
83466;DHT22;73393;51.946;20.140;2023-12-14T11:59:21;2.40;99.80
83466;DHT22;73393;51.946;20.140;2023-12-14T12:02:00;2.50;99.40
83466;DHT22;73393;51.946;20.140;2023-12-14T12:04:27;2.50;98.20
83466;DHT22;73393;51.946;20.140;2023-12-14T12:07:00;2.40;97.80
83466;DHT22;73393;51.946;20.140;2023-12-14T12:09:38;2.30;97.80
83466;DHT22;73393;51.946;20.140;2023-12-14T12:12:11;2.30;98.30
83466;DHT22;73393;51.946;20.140;2023-12-14T12:14:38;2.30;98.70
83466;DHT22;73393;51.946;20.140;2023-12-14T12:17:04;2.30;98.60
83466;DHT22;73393;51.946;20.140;2023-12-14T12:19:34;2.50;98.60
83466;DHT22;73393;51.946;20.140;2023-12-14T12:22:00;2.60;98.70
83466;DHT22;73393;51.946;20.140;2023-12-14T12:24:25;2.70;97.30
83466;DHT22;73393;51.946;20.140;2023-12-14T12:26:51;2.50;96.90
83466;DHT22;73393;51.946;20.140;2023-12-14T12:29:17;2.50;96.90
83466;DHT22;73393;51.946;20.140;2023-12-14T12:31:42;2.50;96.80
83466;DHT22;73393;51.946;20.140;2023-12-14T12:34:09;2.50;96.70
83466;DHT22;73393;51.946;20.140;2023-12-14T12:36:34;2.40;97.90
83466;DHT22;73393;51.946;20.140;2023-12-14T12:39:00;2.50;97.40
83466;DHT22;73393;51.946;20.140;2023-12-14T12:41:25;2.50;96.80
83466;DHT22;73393;51.946;20.140;2023-12-14T12:43:51;2.50;96.90
83466;DHT22;73393;51.946;20.140;2023-12-14T12:46:17;2.40;97.00
83466;DHT22;73393;51.946;20.140;2023-12-14T12:48:43;2.40;97.80
83466;DHT22;73393;51.946;20.140;2023-12-14T12:51:09;2.30;98.00
83466;DHT22;73393;51.946;20.140;2023-12-14T12:53:35;2.40;98.40
83466;DHT22;73393;51.946;20.140;2023-12-14T12:56:00;2.30;97.30
83466;DHT22;73393;51.946;20.140;2023-12-14T12:58:27;2.40;98.00
83466;DHT22;73393;51.946;20.140;2023-12-14T13:00:52;2.30;97.60
83466;DHT22;73393;51.946;20.140;2023-12-14T13:03:18;2.30;98.00
83466;DHT22;73393;51.946;20.140;2023-12-14T13:05:45;2.40;98.20
83466;DHT22;73393;51.946;20.140;2023-12-14T13:08:11;2.30;97.70
83466;DHT22;73393;51.946;20.140;2023-12-14T13:10:36;2.30;98.30
83466;DHT22;73393;51.946;20.140;2023-12-14T13:13:04;2.20;98.40
83466;DHT22;73393;51.946;20.140;2023-12-14T13:15:32;2.10;99.00
83466;DHT22;73393;51.946;20.140;2023-12-14T13:17:57;2.20;99.00
83466;DHT22;73393;51.946;20.140;2023-12-14T13:20:24;2.10;99.00
83466;DHT22;73393;51.946;20.140;2023-12-14T13:22:49;2.20;98.90
83466;DHT22;73393;51.946;20.140;2023-12-14T13:25:15;2.20;98.80
83466;DHT22;73393;51.946;20.140;2023-12-14T13:27:41;2.20;98.40
83466;DHT22;73393;51.946;20.140;2023-12-14T13:30:08;2.30;98.50
83466;DHT22;73393;51.946;20.140;2023-12-14T13:32:34;2.40;98.10
83466;DHT22;73393;51.946;20.140;2023-12-14T13:35:00;2.40;98.30
83466;DHT22;73393;51.946;20.140;2023-12-14T13:37:25;2.40;98.00
83466;DHT22;73393;51.946;20.140;2023-12-14T13:39:52;2.30;98.30
83466;DHT22;73393;51.946;20.140;2023-12-14T13:42:18;2.40;98.20
83466;DHT22;73393;51.946;20.140;2023-12-14T13:44:44;2.30;98.10
83466;DHT22;73393;51.946;20.140;2023-12-14T13:47:10;2.30;98.60
83466;DHT22;73393;51.946;20.140;2023-12-14T13:49:36;2.20;98.70
83466;DHT22;73393;51.946;20.140;2023-12-14T13:52:03;2.10;99.30
83466;DHT22;73393;51.946;20.140;2023-12-14T13:54:29;2.10;99.30
83466;DHT22;73393;51.946;20.140;2023-12-14T13:56:54;2.10;99.50
83466;DHT22;73393;51.946;20.140;2023-12-14T13:59:20;2.10;99.70
83466;DHT22;73393;51.946;20.140;2023-12-14T14:01:45;2.10;99.60
83466;DHT22;73393;51.946;20.140;2023-12-14T14:04:11;2.10;99.80
83466;DHT22;73393;51.946;20.140;2023-12-14T14:06:37;2.10;99.00
83466;DHT22;73393;51.946;20.140;2023-12-14T14:09:02;2.10;99.20
83466;DHT22;73393;51.946;20.140;2023-12-14T14:11:29;2.00;99.30
83466;DHT22;73393;51.946;20.140;2023-12-14T14:13:55;2.10;99.50
83466;DHT22;73393;51.946;20.140;2023-12-14T14:16:20;2.20;99.10
83466;DHT22;73393;51.946;20.140;2023-12-14T14:18:46;2.10;99.10
83466;DHT22;73393;51.946;20.140;2023-12-14T14:21:11;2.10;99.10
83466;DHT22;73393;51.946;20.140;2023-12-14T14:23:37;2.20;99.20
83466;DHT22;73393;51.946;20.140;2023-12-14T14:26:03;2.20;99.00
83466;DHT22;73393;51.946;20.140;2023-12-14T14:28:28;2.10;99.40
83466;DHT22;73393;51.946;20.140;2023-12-14T14:30:54;2.10;99.40
83466;DHT22;73393;51.946;20.140;2023-12-14T14:33:20;2.10;99.60
83466;DHT22;73393;51.946;20.140;2023-12-14T14:35:46;2.10;99.60
83466;DHT22;73393;51.946;20.140;2023-12-14T14:38:12;2.10;99.30
83466;DHT22;73393;51.946;20.140;2023-12-14T14:40:38;2.20;99.00
83466;DHT22;73393;51.946;20.140;2023-12-14T14:43:04;2.20;98.80
83466;DHT22;73393;51.946;20.140;2023-12-14T14:45:29;2.20;98.90
83466;DHT22;73393;51.946;20.140;2023-12-14T14:47:55;2.30;99.20
83466;DHT22;73393;51.946;20.140;2023-12-14T14:50:21;2.20;99.10
83466;DHT22;73393;51.946;20.140;2023-12-14T14:52:47;2.20;99.10
83466;DHT22;73393;51.946;20.140;2023-12-14T14:55:13;2.20;99.10
83466;DHT22;73393;51.946;20.140;2023-12-14T14:57:39;2.20;99.30
83466;DHT22;73393;51.946;20.140;2023-12-14T15:00:05;2.20;99.00
83466;DHT22;73393;51.946;20.140;2023-12-14T15:02:31;2.20;98.90
83466;DHT22;73393;51.946;20.140;2023-12-14T15:04:57;2.20;99.10
83466;DHT22;73393;51.946;20.140;2023-12-14T15:07:22;2.20;98.90
83466;DHT22;73393;51.946;20.140;2023-12-14T15:09:48;2.20;98.70
83466;DHT22;73393;51.946;20.140;2023-12-14T15:12:14;2.20;98.90
83466;DHT22;73393;51.946;20.140;2023-12-14T15:14:39;2.20;99.00
83466;DHT22;73393;51.946;20.140;2023-12-14T15:17:05;2.20;99.10
83466;DHT22;73393;51.946;20.140;2023-12-14T15:19:30;2.30;99.10
83466;DHT22;73393;51.946;20.140;2023-12-14T15:21:56;2.30;98.90